createdAt,value
2023-04-10T00:00:21.660Z,84.99
2023-04-10T00:04:14.790Z,86.26
2023-04-10T00:08:15.829Z,85.67
2023-04-10T00:12:08.292Z,84.78
2023-04-10T00:16:00.572Z,84.35
2023-04-10T00:19:53.019Z,83.77
2023-04-10T00:23:45.520Z,83.75
2023-04-10T00:27:38.013Z,83.69
2023-04-10T00:31:31.677Z,83.60
2023-04-10T00:35:24.436Z,84.82
2023-04-10T00:39:16.880Z,84.27
2023-04-10T00:43:09.439Z,84.81
2023-04-10T00:47:01.748Z,85.51
2023-04-10T00:50:54.522Z,85.07
2023-04-10T00:54:47.001Z,85.32
2023-04-10T00:58:39.807Z,84.79
2023-04-10T01:02:32.679Z,84.64
2023-04-10T01:06:31.761Z,84.14
2023-04-10T01:10:34.230Z,84.79
2023-04-10T01:14:32.756Z,85.07
2023-04-10T01:18:30.664Z,84.63
2023-04-10T01:22:26.583Z,85.44
2023-04-10T01:26:23.514Z,85.59
2023-04-10T01:30:18.493Z,85.44
2023-04-10T01:34:15.178Z,85.26
2023-04-10T01:38:08.221Z,86.06
2023-04-10T01:42:01.224Z,86.14
2023-04-10T01:45:54.249Z,86.18
2023-04-10T01:49:47.505Z,86.24
2023-04-10T01:53:41.242Z,87.00
2023-04-10T01:57:36.051Z,86.65
2023-04-10T02:01:30.442Z,86.63
2023-04-10T02:05:25.739Z,86.85
2023-04-10T02:09:22.678Z,87.39
2023-04-10T02:13:16.168Z,86.99
2023-04-10T02:17:09.749Z,87.20
2023-04-10T02:21:02.739Z,87.20
2023-04-10T02:24:55.328Z,86.86
2023-04-10T02:28:47.710Z,86.53
2023-04-10T02:32:40.389Z,86.28
2023-04-10T02:36:33.142Z,86.98
2023-04-10T02:40:25.657Z,86.87
2023-04-10T02:44:18.390Z,87.09
2023-04-10T02:48:13.569Z,86.29
2023-04-10T02:52:06.245Z,86.17
2023-04-10T02:55:58.805Z,86.51
2023-04-10T02:59:51.956Z,86.45
2023-04-10T03:03:44.447Z,86.65
2023-04-10T03:07:36.815Z,87.30
2023-04-10T03:11:30.889Z,87.74
2023-04-10T03:15:23.638Z,87.39
2023-04-10T03:19:16.548Z,88.82
2023-04-10T03:23:09.018Z,89.26
2023-04-10T03:27:01.804Z,88.95
2023-04-10T03:30:54.060Z,88.36
2023-04-10T03:34:46.563Z,87.59
2023-04-10T03:38:39.047Z,87.46
2023-04-10T03:42:31.280Z,87.64
2023-04-10T03:46:24.280Z,87.43
2023-04-10T03:50:17.128Z,87.44
2023-04-10T03:54:09.589Z,87.62
2023-04-10T03:58:01.845Z,87.13
2023-04-10T04:01:54.603Z,87.57
2023-04-10T04:05:47.030Z,87.47
2023-04-10T04:09:39.843Z,87.22
2023-04-10T04:13:32.134Z,87.53
2023-04-10T04:17:24.487Z,87.55
2023-04-10T04:21:16.899Z,87.70
2023-04-10T04:25:12.023Z,87.70
2023-04-10T04:29:04.546Z,87.15
2023-04-10T04:32:56.973Z,87.68
2023-04-10T04:36:49.397Z,88.04
2023-04-10T04:40:42.069Z,87.52
2023-04-10T04:44:34.687Z,87.37
2023-04-10T04:48:26.854Z,87.32
2023-04-10T04:52:19.363Z,87.08
2023-04-10T04:56:11.924Z,86.57
2023-04-10T05:00:04.570Z,86.69
2023-04-10T05:03:57.740Z,86.74
2023-04-10T05:07:50.291Z,85.83
2023-04-10T05:11:42.634Z,85.36
2023-04-10T05:15:34.972Z,84.54
2023-04-10T05:19:27.768Z,83.54
2023-04-10T05:23:20.676Z,82.40
2023-04-10T05:27:13.198Z,81.23
2023-04-10T05:31:05.938Z,79.22
2023-04-10T05:34:58.043Z,77.67
2023-04-10T05:38:50.792Z,77.00
2023-04-10T05:42:43.120Z,76.91
2023-04-10T05:46:35.392Z,76.39
2023-04-10T05:50:30.315Z,76.41
2023-04-10T05:54:23.242Z,74.81
2023-04-10T05:58:15.774Z,73.57
2023-04-10T06:02:10.141Z,71.69
2023-04-10T06:06:02.952Z,69.40
2023-04-10T06:09:55.216Z,67.89
2023-04-10T06:13:47.450Z,67.79
2023-04-10T06:17:44.059Z,66.59
2023-04-10T06:21:36.843Z,64.63
2023-04-10T06:25:29.313Z,63.74
2023-04-10T06:29:21.657Z,62.89
2023-04-10T06:33:14.288Z,62.65
2023-04-10T06:37:06.689Z,63.50
2023-04-10T06:40:59.257Z,63.20
2023-04-10T06:44:51.922Z,61.68
2023-04-10T06:48:44.838Z,60.54
2023-04-10T06:52:37.235Z,60.70
2023-04-10T06:56:29.445Z,59.66
2023-04-10T07:00:22.957Z,59.80
2023-04-10T07:04:15.396Z,59.00
2023-04-10T07:08:09.186Z,58.86
2023-04-10T07:12:01.581Z,57.43
2023-04-10T07:15:54.114Z,57.99
2023-04-10T07:19:46.448Z,56.54
2023-04-10T07:23:38.848Z,57.13
2023-04-10T07:27:31.740Z,57.50
2023-04-10T07:31:24.473Z,57.72
2023-04-10T07:35:17.076Z,56.07
2023-04-10T07:39:09.433Z,56.31
2023-04-10T07:43:01.821Z,57.40
2023-04-10T07:46:54.273Z,58.16
2023-04-10T07:50:46.791Z,57.64
2023-04-10T07:54:39.788Z,59.44
2023-04-10T07:58:33.466Z,58.93
2023-04-10T08:02:26.328Z,60.00
2023-04-10T08:06:18.710Z,61.88
2023-04-10T08:10:11.249Z,61.90
2023-04-10T08:14:04.088Z,62.12
2023-04-10T08:17:56.389Z,61.86
2023-04-10T08:21:48.808Z,62.22
2023-04-10T08:25:41.606Z,62.46
2023-04-10T08:29:33.790Z,62.17
2023-04-10T08:33:26.418Z,62.24
2023-04-10T08:37:19.860Z,60.46
2023-04-10T08:41:16.504Z,61.00
2023-04-10T08:45:09.342Z,60.45
2023-04-10T08:49:03.040Z,59.56
2023-04-10T08:52:56.715Z,59.70
2023-04-10T08:56:51.377Z,59.96
2023-04-10T09:00:43.804Z,60.58
2023-04-10T09:04:36.958Z,59.61
2023-04-10T09:08:29.852Z,59.65
2023-04-10T09:12:22.421Z,59.98
2023-04-10T09:16:14.923Z,60.33
2023-04-10T09:20:20.931Z,58.80
2023-04-10T09:24:13.553Z,59.80
2023-04-10T09:28:06.876Z,59.93
2023-04-10T09:31:59.276Z,55.00
2023-04-10T09:35:51.667Z,52.83
2023-04-10T09:39:44.327Z,54.21
2023-04-10T09:43:36.594Z,53.31
2023-04-10T09:47:29.244Z,52.60
2023-04-10T09:51:37.323Z,53.95
2023-04-10T09:55:30.404Z,55.14
2023-04-10T09:59:23.279Z,56.13
2023-04-10T10:03:19.570Z,56.96
2023-04-10T10:07:13.225Z,53.99
2023-04-10T10:11:10.269Z,51.17
2023-04-10T10:15:21.610Z,53.59
2023-04-10T10:19:20.509Z,51.55
2023-04-10T10:23:13.763Z,51.00
2023-04-10T10:27:09.591Z,51.98
2023-04-10T10:31:03.254Z,51.19
2023-04-10T10:34:56.718Z,51.58
2023-04-10T10:38:58.728Z,51.43
2023-04-10T10:42:56.385Z,49.89
2023-04-10T10:46:48.949Z,52.13
2023-04-10T10:50:59.168Z,51.08
2023-04-10T10:54:59.212Z,52.80
2023-04-10T10:58:53.317Z,52.30
2023-04-10T11:02:45.983Z,51.57
2023-04-10T11:06:51.619Z,52.11
2023-04-10T11:11:04.876Z,52.78
2023-04-10T11:15:00.754Z,52.58
2023-04-10T11:19:02.773Z,50.05
2023-04-10T11:23:12.953Z,51.99
2023-04-10T11:27:05.413Z,49.70
2023-04-10T11:31:14.430Z,50.96
2023-04-10T11:35:07.250Z,49.19
2023-04-10T11:39:00.582Z,46.66
2023-04-10T11:42:52.963Z,47.96
2023-04-10T11:46:48.484Z,48.07
2023-04-10T11:50:40.873Z,48.95
2023-04-10T11:54:33.524Z,47.94
2023-04-10T11:58:26.763Z,47.70
2023-04-10T12:02:19.237Z,47.57
2023-04-10T12:06:12.526Z,47.51
2023-04-10T12:10:05.277Z,47.42
2023-04-10T12:13:58.282Z,45.91
2023-04-10T12:17:51.346Z,46.68
2023-04-10T12:21:43.966Z,45.94
2023-04-10T12:25:36.852Z,47.89
2023-04-10T12:29:29.989Z,46.37
2023-04-10T12:33:23.032Z,47.68
2023-04-10T12:37:15.563Z,47.99
2023-04-10T12:41:09.072Z,47.72
2023-04-10T12:45:01.286Z,47.97
2023-04-10T12:48:54.257Z,48.56
2023-04-10T12:53:01.314Z,47.70
2023-04-10T12:56:54.641Z,48.04
2023-04-10T13:00:47.780Z,48.51
2023-04-10T13:04:40.422Z,49.11
2023-04-10T13:08:33.114Z,49.66
2023-04-10T13:12:26.682Z,47.77
2023-04-10T13:16:19.351Z,47.30
2023-04-10T13:20:11.775Z,47.25
2023-04-10T13:24:04.687Z,46.61
2023-04-10T13:27:56.887Z,47.92
2023-04-10T13:31:50.566Z,47.65
2023-04-10T13:35:43.005Z,48.21
2023-04-10T13:39:35.468Z,48.02
2023-04-10T13:43:27.954Z,46.10
2023-04-10T13:47:20.368Z,46.86
2023-04-10T13:51:12.790Z,46.70
2023-04-10T13:55:05.821Z,46.80
2023-04-10T13:58:58.202Z,45.72
2023-04-10T14:02:50.801Z,45.61
2023-04-10T14:06:43.277Z,45.57
2023-04-10T14:10:35.570Z,44.80
2023-04-10T14:14:28.545Z,45.96
2023-04-10T14:18:21.048Z,46.83
2023-04-10T14:22:13.425Z,46.82
2023-04-10T14:26:06.588Z,46.48
2023-04-10T14:29:59.356Z,46.32
2023-04-10T14:33:51.875Z,46.13
2023-04-10T14:37:44.490Z,47.36
2023-04-10T14:41:36.743Z,46.89
2023-04-10T14:45:29.729Z,46.61
2023-04-10T14:49:22.201Z,45.66
2023-04-10T14:53:14.483Z,46.88
2023-04-10T14:57:07.553Z,46.78
2023-04-10T15:01:00.089Z,46.59
2023-04-10T15:04:52.340Z,46.98
2023-04-10T15:08:44.975Z,46.89
2023-04-10T15:12:37.740Z,47.72
2023-04-10T15:16:30.678Z,47.56
2023-04-10T15:20:23.005Z,47.42
2023-04-10T15:24:15.640Z,47.90
2023-04-10T15:28:08.567Z,48.59
2023-04-10T15:32:00.927Z,48.64
2023-04-10T15:35:53.494Z,49.66
2023-04-10T15:39:46.012Z,49.04
2023-04-10T15:43:38.637Z,50.24
2023-04-10T15:47:31.251Z,50.69
2023-04-10T15:51:24.332Z,51.83
2023-04-10T15:55:17.322Z,52.11
2023-04-10T15:59:09.964Z,52.03
2023-04-10T16:03:02.532Z,52.39
2023-04-10T16:06:56.893Z,52.63
2023-04-10T16:10:49.350Z,52.21
2023-04-10T16:14:41.918Z,52.56
2023-04-10T16:18:34.561Z,52.90
2023-04-10T16:22:27.689Z,53.28
2023-04-10T16:26:20.393Z,53.81
2023-04-10T16:30:12.893Z,54.11
2023-04-10T16:34:05.350Z,54.17
2023-04-10T16:37:57.738Z,54.82
2023-04-10T16:41:50.393Z,56.08
2023-04-10T16:45:43.107Z,56.46
2023-04-10T16:49:35.602Z,57.48
2023-04-10T16:53:28.054Z,57.59
2023-04-10T16:57:21.781Z,58.37
2023-04-10T17:01:15.866Z,58.76
2023-04-10T17:05:08.545Z,58.89
2023-04-10T17:09:01.006Z,59.20
2023-04-10T17:12:53.341Z,59.33
2023-04-10T17:16:46.156Z,59.68
2023-04-10T17:20:38.893Z,60.18
2023-04-10T17:24:32.080Z,60.17
2023-04-10T17:28:24.339Z,60.84
2023-04-10T17:32:16.566Z,61.14
2023-04-10T17:36:10.481Z,61.93
2023-04-10T17:40:03.483Z,62.36
2023-04-10T17:43:56.037Z,62.68
2023-04-10T17:47:48.605Z,62.98
2023-04-10T17:51:42.083Z,63.43
2023-04-10T17:55:38.097Z,63.89
2023-04-10T17:59:31.876Z,64.06
2023-04-10T18:03:24.867Z,64.14
2023-04-10T18:07:17.402Z,63.85
2023-04-10T18:11:10.376Z,63.85
2023-04-10T18:15:06.761Z,63.42
2023-04-10T18:18:59.492Z,64.05
2023-04-10T18:22:52.144Z,64.01
2023-04-10T18:26:49.410Z,64.59
2023-04-10T18:30:42.486Z,64.53
2023-04-10T18:34:35.660Z,64.36
2023-04-10T18:38:28.555Z,64.07
2023-04-10T18:42:21.176Z,64.53
2023-04-10T18:46:14.533Z,64.76
2023-04-10T18:50:09.934Z,65.13
2023-04-10T18:54:06.370Z,65.39
2023-04-10T18:57:59.062Z,65.24
2023-04-10T19:01:51.466Z,65.99
2023-04-10T19:05:43.991Z,66.55
2023-04-10T19:09:36.681Z,66.52
2023-04-10T19:13:29.176Z,66.67
2023-04-10T19:17:24.445Z,66.98
2023-04-10T19:21:16.756Z,67.36
2023-04-10T19:25:09.543Z,67.07
2023-04-10T19:29:02.032Z,67.09
2023-04-10T19:32:54.863Z,67.51
2023-04-10T19:36:47.995Z,67.08
2023-04-10T19:40:40.447Z,67.70
2023-04-10T19:44:35.909Z,68.25
2023-04-10T19:48:30.461Z,68.91
2023-04-10T19:52:23.048Z,69.18
2023-04-10T19:56:19.228Z,70.41
2023-04-10T20:00:12.618Z,70.68
2023-04-10T20:04:05.730Z,70.65
2023-04-10T20:07:58.085Z,70.87
2023-04-10T20:11:50.802Z,71.68
2023-04-10T20:15:43.765Z,71.71
2023-04-10T20:19:36.418Z,71.85
2023-04-10T20:23:28.910Z,72.17
2023-04-10T20:27:21.195Z,72.14
2023-04-10T20:31:14.930Z,72.57
2023-04-10T20:35:07.644Z,73.80
2023-04-10T20:38:59.860Z,74.39
2023-04-10T20:42:52.896Z,74.37
2023-04-10T20:46:45.690Z,74.34
2023-04-10T20:50:42.673Z,75.10
2023-04-10T20:54:35.126Z,75.59
2023-04-10T20:58:27.480Z,75.07
2023-04-10T21:02:19.843Z,75.07
2023-04-10T21:06:12.827Z,74.80
2023-04-10T21:10:06.037Z,75.03
2023-04-10T21:13:58.687Z,75.62
2023-04-10T21:17:51.143Z,75.72
2023-04-10T21:21:43.623Z,75.66
2023-04-10T21:25:36.664Z,75.70
2023-04-10T21:29:29.626Z,76.45
2023-04-10T21:33:22.242Z,77.85
2023-04-10T21:37:14.770Z,78.11
2023-04-10T21:41:07.425Z,77.58
2023-04-10T21:45:00.624Z,77.36
2023-04-10T21:48:53.522Z,77.35
2023-04-10T21:52:47.475Z,77.65
2023-04-10T21:56:41.462Z,78.02
2023-04-10T22:00:33.958Z,78.30
2023-04-10T22:04:27.339Z,77.90
2023-04-10T22:08:20.466Z,77.41
2023-04-10T22:12:12.924Z,77.16
2023-04-10T22:16:06.443Z,77.49
2023-04-10T22:19:58.932Z,77.61
2023-04-10T22:23:51.185Z,78.08
2023-04-10T22:27:43.882Z,77.67
2023-04-10T22:31:36.405Z,77.87
2023-04-10T22:35:28.892Z,77.85
2023-04-10T22:39:21.513Z,78.62
2023-04-10T22:43:13.849Z,78.83
2023-04-10T22:47:06.285Z,78.18
2023-04-10T22:50:58.446Z,78.63
2023-04-10T22:54:51.408Z,78.36
2023-04-10T22:58:43.742Z,78.60
2023-04-10T23:02:36.474Z,79.20
2023-04-10T23:06:28.992Z,78.90
2023-04-10T23:10:21.181Z,79.23
2023-04-10T23:14:13.867Z,79.56
2023-04-10T23:18:06.454Z,79.22
2023-04-10T23:21:59.290Z,80.19
2023-04-10T23:26:01.060Z,80.06
2023-04-10T23:29:53.648Z,79.65
2023-04-10T23:33:46.083Z,79.70
2023-04-10T23:37:38.893Z,80.01
2023-04-10T23:41:32.491Z,81.15
2023-04-10T23:45:25.115Z,80.36
2023-04-10T23:49:17.664Z,80.35
2023-04-10T23:53:10.345Z,80.77
2023-04-10T23:57:03.247Z,80.26
